createdAt,value
2022-09-16T00:00:48.411Z,100810.16
2022-09-16T00:03:20.924Z,100808.16
2022-09-16T00:05:54.932Z,100808.75
2022-09-16T00:08:25.706Z,100806.94
2022-09-16T00:11:02.611Z,100817.06
2022-09-16T00:13:33.582Z,100812.81
2022-09-16T00:16:11.528Z,100844.56
2022-09-16T00:18:42.122Z,100829.31
2022-09-16T00:21:11.611Z,100835.03
2022-09-16T00:23:43.647Z,100823.50
2022-09-16T00:26:15.996Z,100821.97
2022-09-16T00:28:47.655Z,100823.63
2022-09-16T00:31:20.814Z,100828.72
2022-09-16T00:33:51.355Z,100818.63
2022-09-16T00:36:22.224Z,100816.00
2022-09-16T00:38:55.687Z,100812.13
2022-09-16T00:41:33.263Z,100805.91
2022-09-16T00:44:03.674Z,100801.09
2022-09-16T00:46:37.222Z,100805.63
2022-09-16T00:49:07.856Z,100809.97
2022-09-16T00:51:38.585Z,100804.50
2022-09-16T00:54:09.998Z,100805.81
2022-09-16T00:56:43.753Z,100803.56
2022-09-16T00:59:20.243Z,100812.72
2022-09-16T01:01:50.774Z,100807.69
2022-09-16T01:04:23.116Z,100804.47
2022-09-16T01:06:52.107Z,100807.31
2022-09-16T01:09:27.199Z,100807.19
2022-09-16T01:11:59.778Z,100812.28
2022-09-16T01:14:47.393Z,100804.19
2022-09-16T01:17:25.746Z,100803.16
2022-09-16T01:20:35.772Z,100804.09
2022-09-16T01:23:28.852Z,100810.47
2022-09-16T01:26:09.964Z,100817.31
2022-09-16T01:28:56.104Z,100812.56
2022-09-16T01:31:32.155Z,100814.00
2022-09-16T01:34:12.869Z,100811.00
2022-09-16T01:36:53.358Z,100811.00
2022-09-16T01:39:32.491Z,100812.88
2022-09-16T01:42:12.593Z,100813.53
2022-09-16T01:44:49.042Z,100817.78
2022-09-16T01:47:23.869Z,100804.47
2022-09-16T01:50:00.456Z,100800.69
2022-09-16T01:52:38.828Z,100798.84
2022-09-16T01:55:11.874Z,100808.19
2022-09-16T01:57:47.294Z,100799.09
2022-09-16T02:00:16.349Z,100797.22
2022-09-16T02:02:51.468Z,100791.66
2022-09-16T02:05:25.071Z,100796.00
2022-09-16T02:08:02.155Z,100799.47
2022-09-16T02:10:36.806Z,100800.63
2022-09-16T02:13:15.472Z,100801.84
2022-09-16T02:15:48.304Z,100792.41
2022-09-16T02:18:25.444Z,100799.59
2022-09-16T02:20:59.871Z,100792.88
2022-09-16T02:23:37.030Z,100800.03
2022-09-16T02:26:13.522Z,100796.09
2022-09-16T02:28:46.526Z,100789.50
2022-09-16T02:31:16.704Z,100789.78
2022-09-16T02:33:55.505Z,100797.50
2022-09-16T02:36:28.640Z,100801.84
2022-09-16T02:39:09.190Z,100812.22
2022-09-16T02:41:43.448Z,100835.72
2022-09-16T02:44:15.002Z,100828.41
2022-09-16T02:46:59.252Z,100832.69
2022-09-16T02:49:43.993Z,100832.38
2022-09-16T02:52:22.510Z,100832.78
2022-09-16T02:54:58.732Z,100811.41
2022-09-16T02:57:32.467Z,100804.63
2022-09-16T03:00:03.076Z,100792.88
2022-09-16T03:02:36.695Z,100788.03
2022-09-16T03:05:11.008Z,100789.22
2022-09-16T03:07:45.063Z,100780.00
2022-09-16T03:10:16.631Z,100789.09
2022-09-16T03:12:57.303Z,100776.25
2022-09-16T03:15:38.110Z,100790.41
2022-09-16T03:18:38.852Z,100781.44
2022-09-16T03:21:17.385Z,100785.06
2022-09-16T03:24:01.305Z,100781.19
2022-09-16T03:26:39.627Z,100790.72
2022-09-16T03:29:20.297Z,100787.78
2022-09-16T03:32:01.034Z,100789.00
2022-09-16T03:34:37.106Z,100783.44
2022-09-16T03:37:13.423Z,100784.78
2022-09-16T03:39:45.643Z,100787.50
2022-09-16T03:42:17.223Z,100790.13
2022-09-16T03:44:46.292Z,100776.50
2022-09-16T03:47:14.673Z,100793.50
2022-09-16T03:49:44.061Z,100786.16
2022-09-16T03:52:15.171Z,100788.47
2022-09-16T03:54:44.361Z,100786.22
2022-09-16T03:57:13.660Z,100794.59
2022-09-16T03:59:43.887Z,100792.13
2022-09-16T04:02:12.482Z,100791.97
2022-09-16T04:04:40.942Z,100792.28
2022-09-16T04:07:08.939Z,100784.34
2022-09-16T04:09:38.359Z,100783.06
2022-09-16T04:12:07.769Z,100783.19
2022-09-16T04:14:36.362Z,100782.53
2022-09-16T04:17:04.940Z,100781.50
2022-09-16T04:19:33.238Z,100783.88
2022-09-16T04:22:01.706Z,100784.06
2022-09-16T04:24:30.938Z,100785.34
2022-09-16T04:27:00.508Z,100777.22
2022-09-16T04:29:30.001Z,100778.84
2022-09-16T04:32:01.659Z,100769.28
2022-09-16T04:34:34.284Z,100769.50
2022-09-16T04:37:07.118Z,100760.72
2022-09-16T04:39:37.482Z,100768.81
2022-09-16T04:42:12.984Z,100784.31
2022-09-16T04:44:45.497Z,100769.59
2022-09-16T04:47:17.156Z,100768.75
2022-09-16T04:49:47.854Z,100774.25
2022-09-16T04:52:17.465Z,100769.28
2022-09-16T04:54:47.592Z,100770.47
2022-09-16T04:57:19.952Z,100773.22
2022-09-16T04:59:51.966Z,100770.94
2022-09-16T05:02:24.926Z,100766.88
2022-09-16T05:04:57.583Z,100765.78
2022-09-16T05:07:31.964Z,100766.38
2022-09-16T05:10:05.082Z,100761.25
2022-09-16T05:12:37.054Z,100762.91
2022-09-16T05:15:09.261Z,100756.88
2022-09-16T05:17:50.825Z,100758.38
2022-09-16T05:20:22.338Z,100760.84
2022-09-16T05:22:53.510Z,100762.53
2022-09-16T05:25:23.044Z,100771.78
2022-09-16T05:27:52.778Z,100768.84
2022-09-16T05:30:25.959Z,100773.19
2022-09-16T05:32:56.609Z,100776.94
2022-09-16T05:35:27.309Z,100773.84
2022-09-16T05:37:58.520Z,100773.66
2022-09-16T05:40:30.541Z,100783.28
2022-09-16T05:43:02.409Z,100777.19
2022-09-16T05:45:32.662Z,100771.72
2022-09-16T05:48:01.413Z,100781.56
2022-09-16T05:50:29.687Z,100778.66
2022-09-16T05:52:57.564Z,100778.66
2022-09-16T05:55:26.324Z,100782.03
2022-09-16T05:57:54.341Z,100774.03
2022-09-16T06:00:23.677Z,100773.94
2022-09-16T06:02:51.669Z,100772.56
2022-09-16T06:05:19.733Z,100769.50
2022-09-16T06:07:47.658Z,100779.38
2022-09-16T06:10:15.740Z,100776.28
2022-09-16T06:12:43.715Z,100771.28
2022-09-16T06:15:12.395Z,100768.06
2022-09-16T06:17:41.578Z,100773.53
2022-09-16T06:20:14.031Z,100767.47
2022-09-16T06:22:42.427Z,100762.59
2022-09-16T06:25:10.478Z,100768.38
2022-09-16T06:27:38.421Z,100770.69
2022-09-16T06:30:07.090Z,100766.03
2022-09-16T06:32:35.055Z,100763.81
2022-09-16T06:35:05.354Z,100767.09
2022-09-16T06:37:34.182Z,100766.13
2022-09-16T06:40:02.298Z,100758.56
2022-09-16T06:42:30.341Z,100769.34
2022-09-16T06:45:05.236Z,100766.72
2022-09-16T06:47:35.609Z,100764.66
2022-09-16T06:50:10.579Z,100769.78
2022-09-16T06:52:43.574Z,100761.88
2022-09-16T06:55:14.782Z,100763.00
2022-09-16T06:57:48.515Z,100773.22
2022-09-16T07:00:17.705Z,100766.00
2022-09-16T07:02:48.406Z,100780.81
2022-09-16T07:05:20.867Z,100778.28
2022-09-16T07:07:54.085Z,100779.94
2022-09-16T07:10:24.765Z,100774.56
2022-09-16T07:12:56.495Z,100777.38
2022-09-16T07:15:27.451Z,100775.78
2022-09-16T07:17:59.647Z,100769.47
2022-09-16T07:20:33.282Z,100766.53
2022-09-16T07:23:03.371Z,100765.59
2022-09-16T07:25:35.832Z,100777.69
2022-09-16T07:28:04.596Z,100778.31
2022-09-16T07:30:35.561Z,100781.00
2022-09-16T07:33:07.053Z,100780.22
2022-09-16T07:35:41.107Z,100789.19
2022-09-16T07:38:12.973Z,100774.28
2022-09-16T07:40:42.383Z,100777.84
2022-09-16T07:43:12.389Z,100779.19
2022-09-16T07:45:40.761Z,100773.81
2022-09-16T07:48:10.975Z,100782.97
2022-09-16T07:50:41.948Z,100784.19
2022-09-16T07:53:11.039Z,100786.72
2022-09-16T07:55:42.097Z,100781.44
2022-09-16T07:58:13.824Z,100773.22
2022-09-16T08:00:44.585Z,100779.63
2022-09-16T08:03:16.836Z,100778.19
2022-09-16T08:05:49.483Z,100773.44
2022-09-16T08:08:20.120Z,100782.03
2022-09-16T08:10:56.452Z,100786.84
2022-09-16T08:13:30.143Z,100776.50
2022-09-16T08:16:02.943Z,100783.69
2022-09-16T08:18:32.609Z,100772.78
2022-09-16T08:21:10.593Z,100778.44
2022-09-16T08:23:42.344Z,100785.88
2022-09-16T08:26:14.357Z,100781.00
2022-09-16T08:29:07.461Z,100775.59
2022-09-16T08:31:39.726Z,100774.94
2022-09-16T08:34:10.348Z,100782.25
2022-09-16T08:36:41.848Z,100778.03
2022-09-16T08:39:13.321Z,100773.38
2022-09-16T08:42:10.262Z,100790.56
2022-09-16T08:44:47.088Z,100787.63
2022-09-16T08:47:29.610Z,100781.59
2022-09-16T08:50:01.089Z,100779.78
2022-09-16T08:52:33.534Z,100784.28
2022-09-16T08:55:08.340Z,100801.13
2022-09-16T08:57:43.804Z,100786.56
2022-09-16T09:00:16.507Z,100773.88
2022-09-16T09:02:52.550Z,100784.06
2022-09-16T09:05:28.880Z,100796.75
2022-09-16T09:08:10.354Z,100788.00
2022-09-16T09:10:49.592Z,100778.66
2022-09-16T09:13:43.616Z,100793.16
2022-09-16T09:16:17.736Z,100854.31
2022-09-16T09:18:50.611Z,100801.84
2022-09-16T09:21:27.580Z,100798.97
2022-09-16T09:24:28.210Z,100800.97
2022-09-16T09:27:01.947Z,100802.44
2022-09-16T09:30:05.246Z,100788.19
2022-09-16T09:32:52.544Z,100808.97
2022-09-16T09:35:48.690Z,100786.59
2022-09-16T09:38:54.122Z,100790.78
2022-09-16T09:41:32.904Z,100793.66
2022-09-16T09:44:15.462Z,100797.13
2022-09-16T09:46:51.200Z,100832.81
2022-09-16T09:49:27.804Z,100817.34
2022-09-16T09:52:04.424Z,100828.44
2022-09-16T09:54:38.657Z,100806.00
2022-09-16T09:57:19.073Z,100785.25
2022-09-16T09:59:55.194Z,100801.78
2022-09-16T10:02:26.423Z,100791.72
2022-09-16T10:04:57.635Z,100791.47
2022-09-16T10:07:30.568Z,100793.94
2022-09-16T10:10:15.327Z,100786.72
2022-09-16T10:12:46.309Z,100779.59
2022-09-16T10:15:31.815Z,100799.63
2022-09-16T10:18:05.016Z,100793.19
2022-09-16T10:20:41.729Z,100786.00
2022-09-16T10:23:15.388Z,100787.72
2022-09-16T10:25:47.437Z,100784.78
2022-09-16T10:28:26.337Z,100798.75
2022-09-16T10:31:01.089Z,100789.69
2022-09-16T10:33:36.568Z,100800.34
2022-09-16T10:36:11.702Z,100798.13
2022-09-16T10:38:43.434Z,100807.38
2022-09-16T10:41:18.459Z,100790.69
2022-09-16T10:43:54.107Z,100796.91
2022-09-16T10:46:25.032Z,100788.47
2022-09-16T10:49:02.316Z,100786.75
2022-09-16T10:51:33.893Z,100772.66
2022-09-16T10:54:06.985Z,100779.94
2022-09-16T10:56:53.303Z,100790.94
2022-09-16T10:59:26.010Z,100784.59
2022-09-16T11:02:17.366Z,100782.16
2022-09-16T11:05:00.025Z,100772.56
2022-09-16T11:07:41.732Z,100782.09
2022-09-16T11:10:24.269Z,100787.03
2022-09-16T11:13:27.985Z,100790.19
2022-09-16T11:16:18.131Z,100782.44
2022-09-16T11:18:56.355Z,100774.16
2022-09-16T11:21:57.690Z,100782.25
2022-09-16T11:24:56.803Z,100772.34
2022-09-16T11:27:38.255Z,100774.03
2022-09-16T11:30:15.301Z,100770.84
2022-09-16T11:33:09.893Z,100759.34
2022-09-16T11:36:15.063Z,100775.91
2022-09-16T11:38:59.959Z,100759.56
2022-09-16T11:41:38.197Z,100774.44
2022-09-16T11:44:24.887Z,100761.38
2022-09-16T11:47:08.770Z,100748.72
2022-09-16T11:50:04.364Z,100766.72
2022-09-16T11:52:48.168Z,100756.31
2022-09-16T11:55:34.401Z,100741.50
2022-09-16T11:58:11.758Z,100753.78
2022-09-16T12:00:42.941Z,100787.22
2022-09-16T12:03:29.847Z,100754.44
2022-09-16T12:06:10.706Z,100757.38
2022-09-16T12:08:58.131Z,100815.44
2022-09-16T12:11:34.791Z,100765.72
2022-09-16T12:14:15.794Z,100769.78
2022-09-16T12:16:51.949Z,100765.31
2022-09-16T12:19:28.359Z,100750.69
2022-09-16T12:22:09.540Z,100754.44
2022-09-16T12:24:45.580Z,100773.31
2022-09-16T12:27:30.937Z,100761.09
2022-09-16T12:30:06.027Z,100756.72
2022-09-16T12:32:45.744Z,100768.97
2022-09-16T12:35:19.253Z,100743.56
2022-09-16T12:37:53.037Z,100748.47
2022-09-16T12:40:25.981Z,100769.63
2022-09-16T12:43:31.084Z,100768.09
2022-09-16T12:46:21.329Z,100757.06
2022-09-16T12:49:12.863Z,100757.34
2022-09-16T12:52:11.991Z,100773.91
2022-09-16T12:55:12.724Z,100769.81
2022-09-16T12:57:55.204Z,100798.72
2022-09-16T13:00:30.507Z,100773.34
2022-09-16T13:03:07.855Z,100785.75
2022-09-16T13:05:40.736Z,100774.66
2022-09-16T13:08:23.620Z,100808.44
2022-09-16T13:11:29.272Z,100782.34
2022-09-16T13:13:53.182Z,100798.75
2022-09-16T13:16:35.749Z,100815.72
2022-09-16T13:19:29.878Z,100801.91
2022-09-16T13:22:06.341Z,100804.38
2022-09-16T13:24:42.971Z,100824.00
2022-09-16T13:27:30.346Z,100811.66
2022-09-16T13:30:32.784Z,100804.00
2022-09-16T13:33:28.155Z,100814.25
2022-09-16T13:36:16.841Z,100815.75
2022-09-16T13:38:50.559Z,100807.50
2022-09-16T13:41:37.681Z,100802.72
2022-09-16T13:44:32.125Z,100801.69
2022-09-16T13:47:20.261Z,100788.91
2022-09-16T13:49:57.297Z,100783.63
2022-09-16T13:52:30.985Z,100777.19
2022-09-16T13:55:11.473Z,100772.00
2022-09-16T13:57:59.265Z,100761.81
2022-09-16T14:00:38.330Z,100766.06
2022-09-16T14:03:45.088Z,100760.91
2022-09-16T14:06:31.604Z,100757.34
2022-09-16T14:09:11.791Z,100763.19
2022-09-16T14:11:48.283Z,100752.41
2022-09-16T14:14:48.497Z,100753.34
2022-09-16T14:17:21.771Z,100758.09
2022-09-16T14:20:00.871Z,100737.78
2022-09-16T14:22:32.557Z,100761.09
2022-09-16T14:25:06.564Z,100748.56
2022-09-16T14:27:44.767Z,100756.41
2022-09-16T14:30:19.230Z,100758.38
2022-09-16T14:32:53.159Z,100781.47
2022-09-16T14:35:27.892Z,100778.13
2022-09-16T14:38:03.799Z,100765.78
2022-09-16T14:40:34.971Z,100758.16
2022-09-16T14:43:10.546Z,100762.88
2022-09-16T14:45:39.687Z,100773.78
2022-09-16T14:48:11.580Z,100776.34
2022-09-16T14:50:45.494Z,100769.69
2022-09-16T14:53:35.884Z,100759.25
2022-09-16T14:56:20.684Z,100742.66
2022-09-16T14:58:52.710Z,100753.28
2022-09-16T15:01:29.589Z,100748.84
2022-09-16T15:04:06.452Z,100755.09
2022-09-16T15:06:46.369Z,100759.00
2022-09-16T15:09:22.843Z,100746.03
2022-09-16T15:11:57.694Z,100744.00
2022-09-16T15:14:29.016Z,100757.47
2022-09-16T15:17:01.166Z,100749.25
2022-09-16T15:19:39.186Z,100742.59
2022-09-16T15:22:11.885Z,100756.59
2022-09-16T15:24:43.696Z,100761.50
2022-09-16T15:27:14.239Z,100761.75
2022-09-16T15:29:51.732Z,100762.75
2022-09-16T15:32:28.036Z,100746.19
2022-09-16T15:35:18.630Z,100751.94
2022-09-16T15:37:48.579Z,100739.34
2022-09-16T15:40:34.398Z,100737.44
2022-09-16T15:43:18.970Z,100745.03
2022-09-16T15:45:59.312Z,100751.59
2022-09-16T15:48:33.290Z,100753.13
2022-09-16T15:51:09.255Z,100763.53
2022-09-16T15:53:48.953Z,100774.34
2022-09-16T15:56:27.035Z,100761.91
2022-09-16T15:59:02.125Z,100762.56
2022-09-16T16:01:54.941Z,100760.56
2022-09-16T16:04:30.129Z,100754.88
2022-09-16T16:07:03.512Z,100743.84
2022-09-16T16:09:43.560Z,100751.13
2022-09-16T16:12:17.283Z,100742.03
2022-09-16T16:14:49.045Z,100742.13
2022-09-16T16:17:22.104Z,100734.41
2022-09-16T16:19:52.726Z,100730.22
2022-09-16T16:22:23.036Z,100731.28
2022-09-16T16:24:54.167Z,100726.47
2022-09-16T16:27:26.096Z,100724.09
2022-09-16T16:29:54.646Z,100723.69
2022-09-16T16:32:25.380Z,100727.84
2022-09-16T16:34:58.922Z,100742.19
2022-09-16T16:37:45.958Z,100739.69
2022-09-16T16:40:22.498Z,100752.84
2022-09-16T16:42:53.236Z,100741.88
2022-09-16T16:45:22.900Z,100737.81
2022-09-16T16:47:53.545Z,100748.00
2022-09-16T16:50:22.864Z,100753.47
2022-09-16T16:52:55.826Z,100752.81
2022-09-16T16:55:26.986Z,100763.13
2022-09-16T16:57:57.508Z,100766.09
2022-09-16T17:00:28.845Z,100763.03
2022-09-16T17:03:00.257Z,100770.22
2022-09-16T17:05:32.001Z,100762.28
2022-09-16T17:08:03.689Z,100776.72
2022-09-16T17:10:32.618Z,100774.44
2022-09-16T17:13:01.590Z,100762.69
2022-09-16T17:15:31.042Z,100755.28
2022-09-16T17:18:01.763Z,100755.69
2022-09-16T17:20:34.328Z,100763.59
2022-09-16T17:23:06.445Z,100752.09
2022-09-16T17:25:36.791Z,100766.44
2022-09-16T17:28:06.626Z,100780.94
2022-09-16T17:30:35.123Z,100791.81
2022-09-16T17:33:04.502Z,100806.53
2022-09-16T17:35:32.734Z,100811.13
2022-09-16T17:38:04.871Z,100800.81
2022-09-16T17:40:36.233Z,100806.19
2022-09-16T17:43:04.502Z,100822.25
2022-09-16T17:45:33.804Z,100807.31
2022-09-16T17:48:04.748Z,100813.94
2022-09-16T17:50:36.435Z,100825.47
2022-09-16T17:53:05.406Z,100810.44
2022-09-16T17:55:33.295Z,100801.44
2022-09-16T17:58:02.844Z,100806.00
2022-09-16T18:00:30.823Z,100813.19
2022-09-16T18:03:01.104Z,100802.31
2022-09-16T18:05:31.765Z,100783.13
2022-09-16T18:08:04.641Z,100779.44
2022-09-16T18:10:36.493Z,100774.19
2022-09-16T18:13:07.353Z,100780.59
2022-09-16T18:15:36.805Z,100779.66
2022-09-16T18:18:07.724Z,100781.84
2022-09-16T18:20:39.809Z,100795.63
2022-09-16T18:23:12.279Z,100816.22
2022-09-16T18:25:41.754Z,100835.09
2022-09-16T18:28:12.571Z,100844.16
2022-09-16T18:30:44.829Z,100809.50
2022-09-16T18:33:15.757Z,100840.09
2022-09-16T18:35:50.960Z,100852.56
2022-09-16T18:38:23.683Z,100842.53
2022-09-16T18:41:04.177Z,100850.66
2022-09-16T18:43:37.833Z,100833.59
2022-09-16T18:46:12.687Z,100826.50
2022-09-16T18:48:45.167Z,100821.59
2022-09-16T18:51:20.829Z,100812.63
2022-09-16T18:53:53.362Z,100812.81
2022-09-16T18:56:26.109Z,100809.22
2022-09-16T18:59:21.625Z,100809.22
2022-09-16T19:01:53.918Z,100806.38
2022-09-16T19:04:26.683Z,100805.44
2022-09-16T19:07:06.548Z,100817.88
2022-09-16T19:09:39.480Z,100830.25
2022-09-16T19:12:12.472Z,100837.28
2022-09-16T19:14:44.613Z,100834.28
2022-09-16T19:17:14.501Z,100836.59
2022-09-16T19:19:45.100Z,100837.28
2022-09-16T19:22:14.026Z,100841.44
2022-09-16T19:24:43.764Z,100850.50
2022-09-16T19:27:15.298Z,100831.88
2022-09-16T19:29:50.538Z,100844.09
2022-09-16T19:32:21.560Z,100852.00
2022-09-16T19:34:50.856Z,100850.56
2022-09-16T19:37:20.252Z,100857.38
2022-09-16T19:39:51.451Z,100869.75
2022-09-16T19:42:23.376Z,100863.31
2022-09-16T19:44:54.071Z,100865.47
2022-09-16T19:47:24.175Z,100853.91
2022-09-16T19:49:55.438Z,100858.41
2022-09-16T19:52:25.805Z,100859.09
2022-09-16T19:54:57.679Z,100862.09
2022-09-16T19:57:25.751Z,100855.31
2022-09-16T19:59:56.504Z,100874.09
2022-09-16T20:02:26.937Z,100870.63
2022-09-16T20:04:57.891Z,100872.88
2022-09-16T20:07:28.563Z,100880.06
2022-09-16T20:09:59.836Z,100884.19
2022-09-16T20:12:30.552Z,100881.38
2022-09-16T20:15:06.221Z,100879.06
2022-09-16T20:17:38.380Z,100884.81
2022-09-16T20:20:09.700Z,100899.38
2022-09-16T20:22:43.545Z,100889.66
2022-09-16T20:25:22.953Z,100895.47
2022-09-16T20:27:52.640Z,100907.50
2022-09-16T20:30:24.066Z,100894.56
2022-09-16T20:32:58.031Z,100897.81
2022-09-16T20:35:32.312Z,100890.91
2022-09-16T20:38:03.924Z,100896.03
2022-09-16T20:40:37.099Z,100886.94
2022-09-16T20:43:08.098Z,100906.13
2022-09-16T20:45:40.212Z,100896.03
2022-09-16T20:48:14.269Z,100907.63
2022-09-16T20:50:43.946Z,100906.41
2022-09-16T20:53:16.252Z,100908.38
2022-09-16T20:55:45.040Z,100911.44
2022-09-16T20:58:16.083Z,100924.09
2022-09-16T21:00:46.001Z,100932.59
2022-09-16T21:03:16.363Z,100931.75
2022-09-16T21:05:46.921Z,100943.19
2022-09-16T21:08:18.867Z,100950.81
2022-09-16T21:10:53.477Z,100953.94
2022-09-16T21:13:26.026Z,100946.84
2022-09-16T21:16:02.646Z,100954.31
2022-09-16T21:18:35.503Z,100957.38
2022-09-16T21:21:10.181Z,100953.34
2022-09-16T21:23:41.065Z,100962.31
2022-09-16T21:26:15.646Z,100956.94
2022-09-16T21:28:51.273Z,100953.28
2022-09-16T21:31:23.377Z,100952.16
2022-09-16T21:33:55.196Z,100964.81
2022-09-16T21:36:30.941Z,100965.13
2022-09-16T21:39:05.135Z,100970.94
2022-09-16T21:41:37.148Z,100965.28
2022-09-16T21:44:08.935Z,100959.81
2022-09-16T21:46:49.821Z,100965.13
2022-09-16T21:49:25.227Z,100967.50
2022-09-16T21:51:54.873Z,100968.34
2022-09-16T21:54:23.619Z,100967.50
2022-09-16T21:56:54.875Z,100968.59
2022-09-16T21:59:23.635Z,100976.94
2022-09-16T22:01:53.462Z,100971.63
2022-09-16T22:04:23.337Z,100976.25
2022-09-16T22:06:52.764Z,100974.50
2022-09-16T22:09:22.075Z,100970.31
2022-09-16T22:11:50.752Z,100970.63
2022-09-16T22:14:19.189Z,100975.06
2022-09-16T22:16:47.408Z,100977.63
2022-09-16T22:19:18.905Z,100974.94
2022-09-16T22:21:49.718Z,100972.97
2022-09-16T22:24:21.812Z,100975.16
2022-09-16T22:26:51.315Z,100971.94
2022-09-16T22:29:19.646Z,100967.22
2022-09-16T22:31:47.836Z,100970.72
2022-09-16T22:34:17.530Z,100969.41
2022-09-16T22:36:45.515Z,100968.81
2022-09-16T22:39:15.323Z,100967.13
2022-09-16T22:41:43.632Z,100970.72
2022-09-16T22:44:11.902Z,100971.41
2022-09-16T22:46:42.459Z,100979.56
2022-09-16T22:49:11.082Z,100986.63
2022-09-16T22:51:40.927Z,100981.28
2022-09-16T22:54:10.071Z,100978.69
2022-09-16T22:56:43.590Z,100972.66
2022-09-16T22:59:18.768Z,100978.84
2022-09-16T23:01:48.856Z,100981.44
2022-09-16T23:04:19.878Z,100979.44
2022-09-16T23:06:52.754Z,100975.59
2022-09-16T23:09:24.408Z,100976.44
2022-09-16T23:11:55.327Z,100974.81
2022-09-16T23:14:27.384Z,100973.13
2022-09-16T23:16:59.148Z,100966.78
2022-09-16T23:19:30.477Z,100975.38
2022-09-16T23:22:00.788Z,100981.72
2022-09-16T23:24:34.368Z,100968.97
2022-09-16T23:27:05.542Z,100970.31
2022-09-16T23:29:36.886Z,100976.09
2022-09-16T23:32:08.250Z,100971.94
2022-09-16T23:34:42.117Z,100972.03
2022-09-16T23:37:12.288Z,100969.31
2022-09-16T23:39:40.514Z,100965.06
2022-09-16T23:42:12.142Z,100967.88
2022-09-16T23:44:40.317Z,100971.94
2022-09-16T23:47:08.520Z,100973.53
2022-09-16T23:49:36.718Z,100987.41
2022-09-16T23:52:07.700Z,100983.69
2022-09-16T23:54:37.365Z,100984.56
2022-09-16T23:57:07.701Z,100985.56
2022-09-16T23:59:36.384Z,100987.59
